Chickering American River Reserve, California Weather observations

Data are for 10 minute period ending at time listed.
 Day   Time   Solar   Ave.   Ave.  Ave.  Vector  Max.   Baro.   Total    
  of    of     Rad.   Air    Rel.  Wind   Wind   Wind  Press.  Precip.   
Year   Day            Temp.  Hum.  Speed  Dir.   Gust                    
2014   (PST)  Kw/m2    F      %     mph   deg.    mph    mb.     in.     
-------------------------------------------------------------------------
 106    7:10   0.31   47.8    54    0.9    76     2.6   816.0    0.00 
 106    7:20   0.35   51.0    51    0.9    64     1.8   816.1    0.00 
 106    7:30   0.39   53.0    48    0.9    88     3.2   816.2    0.00 
 106    7:40   0.42   53.9    48    1.0    53     2.4   816.2    0.00 
 106    7:50   0.41   54.0    48    0.9    62     2.9   816.2    0.00 
 106    8:00   0.46   55.7    44    0.8    75     3.2   816.1    0.00 
 106    8:10   0.50   57.0    39    0.7    72     2.3   816.0    0.00 
 106    8:20   0.57   57.3    36    1.4    62     3.2   815.9    0.00 
 106    8:30   0.60   57.3    34    1.1   186     3.1   815.9    0.00 
 106    8:40   0.64   57.7    33    1.9   213     5.0   815.9    0.00 
 106    8:50   0.66   57.3    33    1.7   312     6.2   815.9    0.00 
 106    9:00   0.69   58.1    34    0.9   306     3.4   816.0    0.00 
 106    9:10   0.70   58.9    33    1.5    26     3.9   816.0    0.00 
 106    9:20   0.70   58.5    33    1.6   254     5.7   816.0    0.00 
 106    9:30   0.76   59.6    33    1.1    60     3.1   815.9    0.00 
 106    9:40   0.76   59.7    34    2.0   303     6.6   815.8    0.00 
 106    9:50   0.79   60.7    33    2.4   341     6.4   815.8    0.00 
 106   10:00   0.85   60.7    32    2.1   360     6.1   815.7    0.00 
 106   10:10   0.85   61.0    33    2.4    13     7.5   815.7    0.00 
 106   10:20   0.85   61.4    32    2.5   346     7.0   815.6    0.00 
 106   10:30   0.90   61.1    32    1.7   298     4.6   815.6    0.00 
 106   10:40   0.90   61.7    32    2.4   328     5.4   815.5    0.00 
 106   10:50   0.92   61.9    31    2.3   345     6.5   815.5    0.00 
 106   11:00   0.94   62.7    31    2.5     5     7.4   815.4    0.00 
 106   11:10   0.94   63.7    30    1.9   327     8.6   815.3    0.00 
 106   11:20   0.96   64.1    30    1.7     5     5.3   815.3    0.00 
 106   11:30   0.97   63.8    30    2.5   350     6.4   815.3    0.00 
 106   11:40   0.97   62.9    30    2.0     4     7.5   815.3    0.00 
 106   11:50   0.98   64.7    30    1.2    73     4.2   815.2    0.00 
 106   12:00   0.97   65.2    30    1.5    90     5.5   815.2    0.00 
 106   12:10   0.98   65.6    29    2.0   197     6.0   815.2    0.00 
 106   12:20   0.98   64.3    30    1.4    28     4.6   815.1    0.00 
 106   12:30   0.97   65.7    28    1.7   323     5.6   815.1    0.00 
 106   12:40   0.96   65.8    28    1.8   279     4.2   815.0    0.00 
 106   12:50   0.96   65.7    29    2.8    25     8.2   815.0    0.00 
 106   13:00   0.94   65.6    29    2.6    46     7.5   815.0    0.00 
 106   13:10   0.93   65.9    29    2.7    16     8.1   815.0    0.00 
 106   13:20   0.81   65.7    29    1.2    52     3.5   814.9    0.00 
 106   13:30   0.84   65.1    29    2.7    37     6.4   815.0    0.00 
 106   13:40   0.87   64.8    30    2.2    24     7.2   814.9    0.00 
 106   13:50   0.87   66.1    30    2.6    41     6.7   814.8    0.00 
 106   14:00   0.82   66.4    29    1.9   334     4.6   814.8    0.00 
 106   14:10   0.80   67.1    29    1.3   342     3.9   814.8    0.00 
 106   14:20   0.75   66.9    29    1.9   353     5.9   814.8    0.00 
 106   14:30   0.76   66.0    31    2.6   350     6.1   814.7    0.00 
 106   14:40   0.64   66.8    30    1.7   342     3.8   814.6    0.00 
 106   14:50   0.48   65.4    32    1.8   304     6.4   814.6    0.00 
 106   15:00   0.45   65.7    32    0.8   174     3.9   814.5    0.00 
 106   15:10   0.28   64.7    33    1.2   140     3.8   814.5    0.00 
 106   15:20   0.24   63.3    38    1.2   160     4.9   814.4    0.00 
 106   15:30   0.26   62.5    41    1.1   120     4.8   814.3    0.00 
 106   15:40   0.33   62.6    42    1.6   155     6.1   814.3    0.00 
 106   15:50   0.38   62.5    42    0.8     4     3.4   814.3    0.00 
 106   16:00   0.46   63.0    43    1.8   129     5.4   814.4    0.00 
 106   16:10   0.26   62.4    44    1.7   119     6.6   814.4    0.00 
 106   16:20   0.41   61.6    47    1.2   100     5.1   814.5    0.00 
 106   16:30   0.22   61.3    48    1.2   185     4.7   814.6    0.00 
 106   16:40   0.11   59.4    52    0.9    69     5.1   814.7    0.00 
 106   16:50   0.07   58.8    55    0.5   103     2.6   814.9    0.00 
 106   17:00   0.08   58.2    57    0.6   112     2.3   815.1    0.00 
 106   17:10   0.03   57.4    58    0.5    88     6.6   815.1    0.00 
 106   17:20   0.04   56.5    60    0.5   166     3.3   815.2    0.00 
 106   17:30   0.03   56.2    62    0.2   176     1.5   815.2    0.00 
 106   17:40   0.03   55.4    64    0.4   166     2.4   815.3    0.00 
 106   17:50   0.02   54.6    66    0.4   219     3.0   815.3    0.00 
 106   18:00   0.01   54.2    67    0.5   204     3.1   815.4    0.00 
 106   18:10   0.01   53.2    70    0.4   192     1.8   815.5    0.00 
 106   18:20   0.01   52.4    71    0.7   210     1.7   815.5    0.00 
 106   18:30   0.00   51.8    72    1.2   216     1.8   815.5    0.00 
 106   18:40   0.00   50.7    74    1.6   224     2.4   815.6    0.00 
 106   18:50   0.00   49.5    75    1.8   210     2.3   815.7    0.00 
 106   19:00   0.00   48.1    78    1.8   206     3.1   815.9    0.00 
 106   19:10   0.00   47.0    80    1.9   209     2.9   815.9    0.00 
 106   19:20   0.00   45.9    82    1.8   208     2.9   816.1    0.00 
 106   19:30   0.00   45.3    83    1.8   195     2.9   816.2    0.00 
 106   19:40   0.00   44.6    84    1.4   203     3.3   816.2    0.00 
 106   19:50   0.00   44.3    85    1.4   217     2.6   816.3    0.00 
 106   20:00   0.00   44.0    85    1.2   209     2.1   816.5    0.00 
 106   20:10   0.00   43.3    86    1.6   195     2.3   816.6    0.00 
 106   20:20   0.00   42.7    88    1.9   209     3.3   816.5    0.00 
 106   20:30   0.00   42.6    88    1.7   208     2.7   816.4    0.00 
 106   20:40   0.00   41.9    89    1.7   195     3.0   816.4    0.00 
 106   20:50   0.00   41.6    90    1.9   207     2.7   816.5    0.00 
 106   21:00   0.00   41.6    90    1.6   204     2.4   816.6    0.00 
 106   21:10   0.00   41.2    91    1.5   194     2.2   816.4    0.00 
 106   21:20   0.00   40.9    93    1.7   202     2.5   816.3    0.00 
 106   21:30   0.00   40.8    92    1.9   198     3.0   816.4    0.00 
 106   21:40   0.00   40.7    93    1.9   196     3.5   816.5    0.00 
 106   21:50   0.00   40.4    92    1.6   183     2.8   816.5    0.00 
 106   22:00   0.00   40.2    94    1.7   190     3.7   816.4    0.00 
 106   22:10   0.00   40.2    94    1.7   184     2.7   816.4    0.00 
 106   22:20   0.00   40.2    94    1.4   184     2.6   816.4    0.00 
 106   22:30   0.00   40.6    94    2.0   211     3.0   816.4    0.00 
 106   22:40   0.00   40.8    93    2.0   214     3.1   816.3    0.00 
 106   22:50   0.00   40.3    93    2.1   203     3.4   816.3    0.00 
 106   23:00   0.00   40.4    93    2.3   211     3.5   816.1    0.00 
 106   23:10   0.00   40.3    92    2.2   188     4.2   816.1    0.00 
 106   23:20   0.00   39.9    94    1.8   203     2.9   816.0    0.00 
 106   23:30   0.00   40.7    91    2.0   211     4.1   815.9    0.00 
 106   23:40   0.00   40.7    90    2.1   213     3.4   815.9    0.00 
 106   23:50   0.00   40.7    89    2.3   217     3.7   815.9    0.00 
 107    0:00   0.00   40.7    88    2.3   211     3.4   815.9    0.00 
 107    0:10   0.00   40.7    87    2.1   215     3.1   815.7    0.00 
 107    0:20   0.00   40.6    88    2.3   210     3.4   815.8    0.00 
 107    0:30   0.00   40.8    88    2.2   214     3.4   815.7    0.00 
 107    0:40   0.00   40.8    87    2.1   209     3.0   815.9    0.00 
 107    0:50   0.00   40.2    88    2.1   203     3.2   815.7    0.00 
 107    1:00   0.00   40.1    88    2.2   217     3.4   815.7    0.00 
 107    1:10   0.00   40.3    85    2.2   229     3.7   815.6    0.00 
 107    1:20   0.00   40.5    84    2.0   201     3.6   815.5    0.00 
 107    1:30   0.00   40.0    84    2.0   214     3.2   815.4    0.00 
 107    1:40   0.00   39.9    85    2.2   217     3.4   815.4    0.00 
 107    1:50   0.00   39.8    85    2.0   203     3.1   815.3    0.00 
 107    2:00   0.00   40.0    84    1.9   212     2.9   815.2    0.00 
 107    2:10   0.00   39.3    86    2.2   210     3.4   815.2    0.00 
 107    2:20   0.00   39.3    86    2.3   207     3.3   815.1    0.00 
 107    2:30   0.00   38.7    88    1.9   189     3.7   815.1    0.00 
 107    2:40   0.00   38.5    88    2.2   209     3.8   815.1    0.00 
 107    2:50   0.00   38.8    88    2.3   212     3.2   815.1    0.00 
 107    3:00   0.00   38.4    89    2.0   192     3.4   815.0    0.00 
 107    3:10   0.00   37.9    90    1.6   190     2.7   814.9    0.00 
 107    3:20   0.00   38.1    90    2.0   211     3.5   814.8    0.00 
 107    3:30   0.00   38.0    90    2.1   198     3.6   814.7    0.00 
 107    3:40   0.00   37.6    91    2.4   201     3.6   814.6    0.00 
 107    3:50   0.00   37.6    90    2.2   192     3.6   814.5    0.00 
 107    4:00   0.00   37.4    91    2.3   198     3.6   814.5    0.00 
 107    4:10   0.00   37.9    90    2.5   207     3.4   814.5    0.00 
 107    4:20   0.00   37.9    90    1.7   189     2.6   814.5    0.00 
 107    4:30   0.00   37.4    91    1.7   192     2.4   814.5    0.00 
 107    4:40   0.00   37.2    92    2.1   190     3.4   814.5    0.00 
 107    4:50   0.00   37.1    93    1.9   206     3.0   814.5    0.00 
 107    5:00   0.00   37.4    92    1.9   196     2.8   814.4    0.00 
 107    5:10   0.00   37.4    92    2.0   207     3.2   814.3    0.00 
 107    5:20   0.00   37.3    92    2.0   194     2.8   814.3    0.00 
 107    5:30   0.00   37.2    93    2.1   206     3.4   814.3    0.00 
 107    5:40   0.00   37.6    92    2.0   202     2.7   814.3    0.00 
 107    5:50   0.00   37.3    92    1.9   196     3.1   814.4    0.00 
 107    6:00   0.01   37.3    92    1.9   198     2.9   814.5    0.00 
 107    6:10   0.04   37.5    93    1.6   197     3.1   814.5    0.00 
 107    6:20   0.12   38.8    90    1.1   191     2.1   814.6    0.00 
 107    6:30   0.05   39.8    89    0.3   178     1.8   814.7    0.00 
 107    6:40   0.04   42.0    83    0.4    97     2.3   814.7    0.00 
 107    6:50   0.15   44.7    72    0.5    60     1.6   814.8    0.00 
 107    7:00   0.28   46.2    70    0.1    57     0.8   814.9    0.00 

Return to Chickering American River Reserve graphs page.


Western Regional Climate Center,wrcc@dri.edu